sensor_id;sensor_type;location;lat;lon;timestamp;P1;durP1;ratioP1;P2;durP2;ratioP2
3873;SDS011;1952;50.872;6.692;2023-01-29T00:30:40;38.10;;;24.05;;
3873;SDS011;1952;50.872;6.692;2023-01-29T00:33:09;46.75;;;25.88;;
3873;SDS011;1952;50.872;6.692;2023-01-29T00:35:39;42.97;;;23.60;;
3873;SDS011;1952;50.872;6.692;2023-01-29T00:38:13;44.45;;;25.20;;
3873;SDS011;1952;50.872;6.692;2023-01-29T00:40:41;50.35;;;26.27;;
3873;SDS011;1952;50.872;6.692;2023-01-29T00:43:32;44.35;;;25.30;;
3873;SDS011;1952;50.872;6.692;2023-01-29T00:46:25;41.50;;;22.60;;
3873;SDS011;1952;50.872;6.692;2023-01-29T00:48:56;50.00;;;27.63;;
3873;SDS011;1952;50.872;6.692;2023-01-29T00:51:26;52.95;;;27.85;;
3873;SDS011;1952;50.872;6.692;2023-01-29T00:53:54;51.22;;;28.08;;
3873;SDS011;1952;50.872;6.692;2023-01-29T00:56:33;55.40;;;26.38;;
3873;SDS011;1952;50.872;6.692;2023-01-29T00:59:06;50.00;;;28.60;;
3873;SDS011;1952;50.872;6.692;2023-01-29T01:01:36;53.15;;;27.50;;
3873;SDS011;1952;50.872;6.692;2023-01-29T01:04:22;53.67;;;27.90;;
3873;SDS011;1952;50.872;6.692;2023-01-29T01:06:53;47.20;;;24.97;;
3873;SDS011;1952;50.872;6.692;2023-01-29T01:09:26;56.67;;;27.75;;
3873;SDS011;1952;50.872;6.692;2023-01-29T01:12:12;48.50;;;27.48;;
3873;SDS011;1952;50.872;6.692;2023-01-29T01:14:46;51.10;;;27.40;;
3873;SDS011;1952;50.872;6.692;2023-01-29T01:17:20;52.33;;;26.43;;
3873;SDS011;1952;50.872;6.692;2023-01-29T01:19:49;47.72;;;26.08;;
3873;SDS011;1952;50.872;6.692;2023-01-29T01:22:17;46.70;;;27.03;;
3873;SDS011;1952;50.872;6.692;2023-01-29T01:24:53;53.33;;;27.63;;
3873;SDS011;1952;50.872;6.692;2023-01-29T01:27:26;51.78;;;28.48;;
3873;SDS011;1952;50.872;6.692;2023-01-29T01:29:54;52.45;;;30.88;;
3873;SDS011;1952;50.872;6.692;2023-01-29T01:32:24;55.65;;;31.52;;
3873;SDS011;1952;50.872;6.692;2023-01-29T01:34:52;51.33;;;30.08;;
3873;SDS011;1952;50.872;6.692;2023-01-29T01:37:20;55.97;;;29.50;;
3873;SDS011;1952;50.872;6.692;2023-01-29T01:39:54;49.75;;;28.83;;
3873;SDS011;1952;50.872;6.692;2023-01-29T01:42:26;45.25;;;26.48;;
3873;SDS011;1952;50.872;6.692;2023-01-29T01:45:02;55.87;;;26.97;;
3873;SDS011;1952;50.872;6.692;2023-01-29T01:47:35;57.65;;;31.80;;
3873;SDS011;1952;50.872;6.692;2023-01-29T01:50:06;49.78;;;27.73;;
3873;SDS011;1952;50.872;6.692;2023-01-29T01:52:41;49.45;;;27.65;;
3873;SDS011;1952;50.872;6.692;2023-01-29T01:55:15;55.97;;;29.83;;
3873;SDS011;1952;50.872;6.692;2023-01-29T01:57:50;51.83;;;29.23;;
3873;SDS011;1952;50.872;6.692;2023-01-29T02:00:27;46.40;;;28.15;;
3873;SDS011;1952;50.872;6.692;2023-01-29T02:02:57;50.13;;;29.35;;
3873;SDS011;1952;50.872;6.692;2023-01-29T02:05:42;53.47;;;31.88;;
3873;SDS011;1952;50.872;6.692;2023-01-29T02:08:29;52.78;;;30.92;;
3873;SDS011;1952;50.872;6.692;2023-01-29T02:11:21;60.25;;;31.23;;
3873;SDS011;1952;50.872;6.692;2023-01-29T02:13:50;57.90;;;29.50;;
3873;SDS011;1952;50.872;6.692;2023-01-29T02:16:20;56.80;;;31.33;;
3873;SDS011;1952;50.872;6.692;2023-01-29T02:18:49;54.83;;;31.35;;
3873;SDS011;1952;50.872;6.692;2023-01-29T02:21:28;54.42;;;30.25;;
3873;SDS011;1952;50.872;6.692;2023-01-29T02:24:17;52.92;;;29.73;;
3873;SDS011;1952;50.872;6.692;2023-01-29T02:27:14;57.23;;;32.33;;
3873;SDS011;1952;50.872;6.692;2023-01-29T02:29:48;61.42;;;31.85;;
3873;SDS011;1952;50.872;6.692;2023-01-29T02:32:21;53.20;;;32.20;;
3873;SDS011;1952;50.872;6.692;2023-01-29T02:34:59;50.95;;;29.83;;
3873;SDS011;1952;50.872;6.692;2023-01-29T02:37:50;56.38;;;31.05;;
3873;SDS011;1952;50.872;6.692;2023-01-29T02:40:22;57.50;;;32.85;;
3873;SDS011;1952;50.872;6.692;2023-01-29T02:43:00;50.97;;;29.70;;
3873;SDS011;1952;50.872;6.692;2023-01-29T02:45:40;51.05;;;29.90;;
3873;SDS011;1952;50.872;6.692;2023-01-29T02:48:12;53.58;;;27.77;;
3873;SDS011;1952;50.872;6.692;2023-01-29T02:50:44;53.33;;;32.90;;
3873;SDS011;1952;50.872;6.692;2023-01-29T02:53:17;53.30;;;29.35;;
3873;SDS011;1952;50.872;6.692;2023-01-29T02:55:51;49.43;;;28.33;;
3873;SDS011;1952;50.872;6.692;2023-01-29T02:58:21;52.83;;;27.75;;
3873;SDS011;1952;50.872;6.692;2023-01-29T03:00:59;56.08;;;29.15;;
3873;SDS011;1952;50.872;6.692;2023-01-29T03:03:30;51.50;;;27.40;;
3873;SDS011;1952;50.872;6.692;2023-01-29T03:06:01;49.58;;;29.05;;
3873;SDS011;1952;50.872;6.692;2023-01-29T03:08:38;48.55;;;26.33;;
3873;SDS011;1952;50.872;6.692;2023-01-29T03:11:11;48.60;;;28.00;;
3873;SDS011;1952;50.872;6.692;2023-01-29T03:13:46;46.08;;;25.02;;
3873;SDS011;1952;50.872;6.692;2023-01-29T03:16:23;48.90;;;28.60;;
3873;SDS011;1952;50.872;6.692;2023-01-29T03:18:54;50.35;;;27.33;;
3873;SDS011;1952;50.872;6.692;2023-01-29T03:21:29;46.23;;;26.80;;
3873;SDS011;1952;50.872;6.692;2023-01-29T03:24:21;56.25;;;28.17;;
3873;SDS011;1952;50.872;6.692;2023-01-29T03:27:19;53.90;;;26.00;;
3873;SDS011;1952;50.872;6.692;2023-01-29T03:30:13;41.85;;;27.38;;
3873;SDS011;1952;50.872;6.692;2023-01-29T03:33:03;43.42;;;25.15;;
3873;SDS011;1952;50.872;6.692;2023-01-29T03:35:37;52.20;;;27.05;;
3873;SDS011;1952;50.872;6.692;2023-01-29T03:38:08;47.80;;;27.17;;
3873;SDS011;1952;50.872;6.692;2023-01-29T03:40:43;49.90;;;26.45;;
3873;SDS011;1952;50.872;6.692;2023-01-29T03:43:13;47.92;;;28.25;;
3873;SDS011;1952;50.872;6.692;2023-01-29T03:45:53;47.25;;;25.17;;
3873;SDS011;1952;50.872;6.692;2023-01-29T03:48:36;47.00;;;24.88;;
3873;SDS011;1952;50.872;6.692;2023-01-29T03:51:10;44.60;;;24.33;;
3873;SDS011;1952;50.872;6.692;2023-01-29T03:53:47;53.50;;;27.85;;
3873;SDS011;1952;50.872;6.692;2023-01-29T03:56:20;44.22;;;24.33;;
3873;SDS011;1952;50.872;6.692;2023-01-29T03:58:50;54.75;;;27.90;;
3873;SDS011;1952;50.872;6.692;2023-01-29T04:01:23;60.20;;;28.55;;
3873;SDS011;1952;50.872;6.692;2023-01-29T04:04:00;43.70;;;24.77;;
3873;SDS011;1952;50.872;6.692;2023-01-29T04:06:31;46.33;;;26.70;;
3873;SDS011;1952;50.872;6.692;2023-01-29T04:09:09;53.45;;;27.23;;
3873;SDS011;1952;50.872;6.692;2023-01-29T04:11:44;59.30;;;28.33;;
3873;SDS011;1952;50.872;6.692;2023-01-29T04:14:14;57.47;;;28.33;;
3873;SDS011;1952;50.872;6.692;2023-01-29T04:16:49;43.80;;;24.83;;
3873;SDS011;1952;50.872;6.692;2023-01-29T04:19:20;50.95;;;27.83;;
3873;SDS011;1952;50.872;6.692;2023-01-29T04:21:49;47.00;;;26.13;;
3873;SDS011;1952;50.872;6.692;2023-01-29T04:24:18;56.47;;;28.73;;
3873;SDS011;1952;50.872;6.692;2023-01-29T04:26:54;47.35;;;24.55;;
3873;SDS011;1952;50.872;6.692;2023-01-29T04:29:30;49.72;;;23.92;;
3873;SDS011;1952;50.872;6.692;2023-01-29T04:32:09;53.50;;;26.08;;
3873;SDS011;1952;50.872;6.692;2023-01-29T04:34:42;45.63;;;25.90;;
3873;SDS011;1952;50.872;6.692;2023-01-29T04:37:21;53.15;;;26.20;;
3873;SDS011;1952;50.872;6.692;2023-01-29T04:39:51;50.72;;;25.70;;
3873;SDS011;1952;50.872;6.692;2023-01-29T04:42:22;51.63;;;25.05;;
3873;SDS011;1952;50.872;6.692;2023-01-29T04:44:53;48.83;;;26.27;;
3873;SDS011;1952;50.872;6.692;2023-01-29T04:47:27;56.03;;;26.95;;
3873;SDS011;1952;50.872;6.692;2023-01-29T04:50:02;49.75;;;25.73;;
3873;SDS011;1952;50.872;6.692;2023-01-29T04:52:38;43.15;;;26.65;;
3873;SDS011;1952;50.872;6.692;2023-01-29T04:55:12;44.70;;;27.65;;
3873;SDS011;1952;50.872;6.692;2023-01-29T04:57:49;56.28;;;30.73;;
3873;SDS011;1952;50.872;6.692;2023-01-29T05:00:21;48.08;;;26.98;;
3873;SDS011;1952;50.872;6.692;2023-01-29T05:02:52;48.05;;;28.73;;
3873;SDS011;1952;50.872;6.692;2023-01-29T05:05:22;48.55;;;27.85;;
3873;SDS011;1952;50.872;6.692;2023-01-29T05:07:50;53.10;;;29.50;;
3873;SDS011;1952;50.872;6.692;2023-01-29T05:10:19;53.00;;;25.98;;
3873;SDS011;1952;50.872;6.692;2023-01-29T05:12:48;53.30;;;28.25;;
3873;SDS011;1952;50.872;6.692;2023-01-29T05:15:19;47.67;;;26.47;;
3873;SDS011;1952;50.872;6.692;2023-01-29T05:17:51;38.95;;;23.27;;
3873;SDS011;1952;50.872;6.692;2023-01-29T05:20:30;48.03;;;26.83;;
3873;SDS011;1952;50.872;6.692;2023-01-29T05:23:00;48.60;;;25.10;;
3873;SDS011;1952;50.872;6.692;2023-01-29T05:25:28;47.80;;;24.85;;
3873;SDS011;1952;50.872;6.692;2023-01-29T05:28:02;48.93;;;25.37;;
3873;SDS011;1952;50.872;6.692;2023-01-29T05:30:29;49.63;;;25.40;;
3873;SDS011;1952;50.872;6.692;2023-01-29T05:32:58;41.50;;;23.37;;
3873;SDS011;1952;50.872;6.692;2023-01-29T05:35:26;54.00;;;27.60;;
3873;SDS011;1952;50.872;6.692;2023-01-29T05:37:56;48.47;;;27.27;;
3873;SDS011;1952;50.872;6.692;2023-01-29T05:40:29;47.40;;;27.38;;
3873;SDS011;1952;50.872;6.692;2023-01-29T05:42:58;46.37;;;26.27;;
3873;SDS011;1952;50.872;6.692;2023-01-29T05:45:31;44.87;;;25.23;;
3873;SDS011;1952;50.872;6.692;2023-01-29T05:47:59;44.00;;;25.40;;
3873;SDS011;1952;50.872;6.692;2023-01-29T05:50:28;44.53;;;23.23;;
3873;SDS011;1952;50.872;6.692;2023-01-29T05:53:02;41.50;;;24.13;;
3873;SDS011;1952;50.872;6.692;2023-01-29T06:33:37;37.33;;;21.65;;
3873;SDS011;1952;50.872;6.692;2023-01-29T06:36:05;41.95;;;22.92;;
3873;SDS011;1952;50.872;6.692;2023-01-29T06:38:34;43.92;;;22.42;;
3873;SDS011;1952;50.872;6.692;2023-01-29T06:41:07;54.67;;;24.08;;
3873;SDS011;1952;50.872;6.692;2023-01-29T06:43:42;41.67;;;24.77;;
3873;SDS011;1952;50.872;6.692;2023-01-29T06:46:15;41.50;;;23.00;;
3873;SDS011;1952;50.872;6.692;2023-01-29T06:48:45;40.10;;;22.77;;
3873;SDS011;1952;50.872;6.692;2023-01-29T06:51:17;37.75;;;21.00;;
3873;SDS011;1952;50.872;6.692;2023-01-29T06:53:51;37.08;;;22.48;;
3873;SDS011;1952;50.872;6.692;2023-01-29T06:56:26;38.88;;;20.85;;
3873;SDS011;1952;50.872;6.692;2023-01-29T06:58:59;44.63;;;22.83;;
3873;SDS011;1952;50.872;6.692;2023-01-29T07:01:27;42.73;;;25.03;;
3873;SDS011;1952;50.872;6.692;2023-01-29T07:04:02;46.00;;;26.20;;
3873;SDS011;1952;50.872;6.692;2023-01-29T07:06:31;41.33;;;24.73;;
3873;SDS011;1952;50.872;6.692;2023-01-29T07:08:59;47.90;;;26.88;;
3873;SDS011;1952;50.872;6.692;2023-01-29T07:11:27;41.93;;;23.67;;
3873;SDS011;1952;50.872;6.692;2023-01-29T07:14:00;49.37;;;25.27;;
3873;SDS011;1952;50.872;6.692;2023-01-29T07:16:28;46.30;;;26.43;;
3873;SDS011;1952;50.872;6.692;2023-01-29T07:19:02;49.40;;;26.07;;
3873;SDS011;1952;50.872;6.692;2023-01-29T07:21:30;40.37;;;22.77;;
3873;SDS011;1952;50.872;6.692;2023-01-29T07:24:03;46.57;;;24.83;;
3873;SDS011;1952;50.872;6.692;2023-01-29T07:26:31;37.10;;;22.00;;
3873;SDS011;1952;50.872;6.692;2023-01-29T07:28:59;38.33;;;22.60;;
3873;SDS011;1952;50.872;6.692;2023-01-29T07:31:28;42.07;;;24.47;;
3873;SDS011;1952;50.872;6.692;2023-01-29T07:33:56;38.43;;;20.23;;
3873;SDS011;1952;50.872;6.692;2023-01-29T07:36:31;43.80;;;24.70;;
3873;SDS011;1952;50.872;6.692;2023-01-29T07:39:03;37.53;;;21.63;;
3873;SDS011;1952;50.872;6.692;2023-01-29T07:41:36;38.67;;;22.17;;
3873;SDS011;1952;50.872;6.692;2023-01-29T07:44:04;40.93;;;22.77;;
3873;SDS011;1952;50.872;6.692;2023-01-29T07:46:32;38.07;;;21.33;;
3873;SDS011;1952;50.872;6.692;2023-01-29T07:49:01;46.03;;;24.30;;
3873;SDS011;1952;50.872;6.692;2023-01-29T07:51:29;36.53;;;22.63;;
3873;SDS011;1952;50.872;6.692;2023-01-29T07:53:58;42.63;;;23.37;;
3873;SDS011;1952;50.872;6.692;2023-01-29T07:56:31;29.90;;;20.10;;
3873;SDS011;1952;50.872;6.692;2023-01-29T07:58:59;44.47;;;24.80;;
3873;SDS011;1952;50.872;6.692;2023-01-29T08:01:28;36.20;;;20.37;;
3873;SDS011;1952;50.872;6.692;2023-01-29T08:04:00;43.13;;;24.83;;
3873;SDS011;1952;50.872;6.692;2023-01-29T08:06:33;34.23;;;20.90;;
3873;SDS011;1952;50.872;6.692;2023-01-29T08:09:03;39.80;;;24.23;;
3873;SDS011;1952;50.872;6.692;2023-01-29T08:11:31;39.43;;;24.07;;
3873;SDS011;1952;50.872;6.692;2023-01-29T08:13:59;35.00;;;21.90;;
3873;SDS011;1952;50.872;6.692;2023-01-29T08:16:27;38.30;;;20.40;;
3873;SDS011;1952;50.872;6.692;2023-01-29T08:19:00;36.40;;;22.40;;
3873;SDS011;1952;50.872;6.692;2023-01-29T08:21:28;37.03;;;22.30;;
3873;SDS011;1952;50.872;6.692;2023-01-29T08:24:02;29.33;;;19.10;;
3873;SDS011;1952;50.872;6.692;2023-01-29T08:26:31;33.90;;;18.10;;
3873;SDS011;1952;50.872;6.692;2023-01-29T08:28:59;32.90;;;19.27;;
3873;SDS011;1952;50.872;6.692;2023-01-29T08:31:32;36.10;;;20.73;;
3873;SDS011;1952;50.872;6.692;2023-01-29T08:34:00;29.20;;;16.63;;
3873;SDS011;1952;50.872;6.692;2023-01-29T08:36:28;35.23;;;20.60;;
3873;SDS011;1952;50.872;6.692;2023-01-29T08:39:01;31.63;;;17.57;;
3873;SDS011;1952;50.872;6.692;2023-01-29T08:41:30;42.67;;;22.67;;
3873;SDS011;1952;50.872;6.692;2023-01-29T08:43:58;34.43;;;21.83;;
3873;SDS011;1952;50.872;6.692;2023-01-29T08:46:27;36.47;;;22.20;;
3873;SDS011;1952;50.872;6.692;2023-01-29T08:49:00;32.33;;;19.80;;
3873;SDS011;1952;50.872;6.692;2023-01-29T08:51:28;36.07;;;19.40;;
3873;SDS011;1952;50.872;6.692;2023-01-29T08:54:01;36.30;;;22.57;;
3873;SDS011;1952;50.872;6.692;2023-01-29T08:56:30;33.63;;;20.90;;
3873;SDS011;1952;50.872;6.692;2023-01-29T08:58:58;39.27;;;20.07;;
3873;SDS011;1952;50.872;6.692;2023-01-29T09:01:26;33.80;;;18.93;;
3873;SDS011;1952;50.872;6.692;2023-01-29T09:03:55;36.17;;;21.10;;
3873;SDS011;1952;50.872;6.692;2023-01-29T09:06:23;43.77;;;23.40;;
3873;SDS011;1952;50.872;6.692;2023-01-29T09:08:56;31.27;;;18.97;;
3873;SDS011;1952;50.872;6.692;2023-01-29T09:11:30;35.37;;;19.83;;
3873;SDS011;1952;50.872;6.692;2023-01-29T09:14:03;31.70;;;18.77;;
3873;SDS011;1952;50.872;6.692;2023-01-29T09:16:31;37.83;;;21.57;;
3873;SDS011;1952;50.872;6.692;2023-01-29T09:19:04;35.17;;;19.33;;
3873;SDS011;1952;50.872;6.692;2023-01-29T09:21:33;33.37;;;21.27;;
3873;SDS011;1952;50.872;6.692;2023-01-29T09:24:01;43.40;;;24.77;;
3873;SDS011;1952;50.872;6.692;2023-01-29T09:26:35;33.30;;;19.70;;
3873;SDS011;1952;50.872;6.692;2023-01-29T09:29:09;40.23;;;21.80;;
3873;SDS011;1952;50.872;6.692;2023-01-29T09:34:38;34.63;;;20.27;;
3873;SDS011;1952;50.872;6.692;2023-01-29T09:37:06;32.83;;;20.20;;
3873;SDS011;1952;50.872;6.692;2023-01-29T09:39:35;41.73;;;23.83;;
3873;SDS011;1952;50.872;6.692;2023-01-29T09:42:10;35.17;;;20.23;;
3873;SDS011;1952;50.872;6.692;2023-01-29T09:44:46;37.40;;;21.93;;
3873;SDS011;1952;50.872;6.692;2023-01-29T09:47:21;40.37;;;22.30;;
3873;SDS011;1952;50.872;6.692;2023-01-29T09:49:53;37.93;;;19.90;;
3873;SDS011;1952;50.872;6.692;2023-01-29T09:52:23;36.13;;;22.57;;
3873;SDS011;1952;50.872;6.692;2023-01-29T09:54:54;37.17;;;21.40;;
3873;SDS011;1952;50.872;6.692;2023-01-29T09:57:26;41.87;;;21.63;;
3873;SDS011;1952;50.872;6.692;2023-01-29T09:59:56;38.43;;;21.10;;
3873;SDS011;1952;50.872;6.692;2023-01-29T10:05:15;29.23;;;17.07;;
3873;SDS011;1952;50.872;6.692;2023-01-29T10:07:57;37.13;;;22.07;;
3873;SDS011;1952;50.872;6.692;2023-01-29T10:10:32;38.87;;;21.50;;
3873;SDS011;1952;50.872;6.692;2023-01-29T10:13:13;33.57;;;20.50;;
3873;SDS011;1952;50.872;6.692;2023-01-29T10:15:46;35.90;;;22.40;;
3873;SDS011;1952;50.872;6.692;2023-01-29T10:18:30;36.40;;;21.47;;
3873;SDS011;1952;50.872;6.692;2023-01-29T10:21:03;36.83;;;22.20;;
3873;SDS011;1952;50.872;6.692;2023-01-29T10:23:39;37.03;;;20.17;;
3873;SDS011;1952;50.872;6.692;2023-01-29T10:26:18;34.00;;;21.83;;
3873;SDS011;1952;50.872;6.692;2023-01-29T10:28:49;44.37;;;24.10;;
3873;SDS011;1952;50.872;6.692;2023-01-29T10:31:19;42.50;;;23.10;;
3873;SDS011;1952;50.872;6.692;2023-01-29T10:33:50;39.27;;;22.93;;
3873;SDS011;1952;50.872;6.692;2023-01-29T10:36:31;33.73;;;20.30;;
3873;SDS011;1952;50.872;6.692;2023-01-29T10:39:00;30.20;;;20.20;;
3873;SDS011;1952;50.872;6.692;2023-01-29T10:41:39;42.90;;;22.43;;
3873;SDS011;1952;50.872;6.692;2023-01-29T10:44:16;32.87;;;19.33;;
3873;SDS011;1952;50.872;6.692;2023-01-29T10:46:52;41.50;;;21.70;;
3873;SDS011;1952;50.872;6.692;2023-01-29T10:49:30;38.07;;;22.03;;
3873;SDS011;1952;50.872;6.692;2023-01-29T10:52:09;29.70;;;17.30;;
3873;SDS011;1952;50.872;6.692;2023-01-29T10:54:53;34.83;;;20.33;;
3873;SDS011;1952;50.872;6.692;2023-01-29T10:57:39;34.27;;;19.27;;
3873;SDS011;1952;50.872;6.692;2023-01-29T11:00:11;31.50;;;18.50;;
3873;SDS011;1952;50.872;6.692;2023-01-29T11:02:43;35.27;;;21.50;;
3873;SDS011;1952;50.872;6.692;2023-01-29T11:05:15;36.53;;;20.33;;
3873;SDS011;1952;50.872;6.692;2023-01-29T11:07:53;29.70;;;18.70;;
3873;SDS011;1952;50.872;6.692;2023-01-29T11:10:30;35.10;;;20.37;;
3873;SDS011;1952;50.872;6.692;2023-01-29T11:13:05;29.10;;;18.83;;
3873;SDS011;1952;50.872;6.692;2023-01-29T11:15:35;37.07;;;20.10;;
3873;SDS011;1952;50.872;6.692;2023-01-29T11:18:03;33.67;;;20.33;;
3873;SDS011;1952;50.872;6.692;2023-01-29T11:20:37;30.30;;;18.13;;
3873;SDS011;1952;50.872;6.692;2023-01-29T11:23:18;37.83;;;19.50;;
3873;SDS011;1952;50.872;6.692;2023-01-29T11:25:51;30.33;;;19.37;;
3873;SDS011;1952;50.872;6.692;2023-01-29T11:28:34;33.07;;;19.93;;
3873;SDS011;1952;50.872;6.692;2023-01-29T11:34:02;35.70;;;20.87;;
3873;SDS011;1952;50.872;6.692;2023-01-29T11:36:36;29.73;;;19.40;;
3873;SDS011;1952;50.872;6.692;2023-01-29T11:39:12;36.17;;;21.83;;
3873;SDS011;1952;50.872;6.692;2023-01-29T11:41:49;39.37;;;23.83;;
3873;SDS011;1952;50.872;6.692;2023-01-29T11:44:20;38.40;;;22.23;;
3873;SDS011;1952;50.872;6.692;2023-01-29T11:47:07;40.30;;;21.87;;
3873;SDS011;1952;50.872;6.692;2023-01-29T11:49:38;34.13;;;19.90;;
3873;SDS011;1952;50.872;6.692;2023-01-29T11:52:14;39.50;;;20.60;;
3873;SDS011;1952;50.872;6.692;2023-01-29T11:54:43;36.80;;;18.00;;
3873;SDS011;1952;50.872;6.692;2023-01-29T12:34:05;33.90;;;19.50;;
3873;SDS011;1952;50.872;6.692;2023-01-29T12:36:35;31.10;;;18.00;;
3873;SDS011;1952;50.872;6.692;2023-01-29T12:39:05;38.73;;;21.83;;
3873;SDS011;1952;50.872;6.692;2023-01-29T12:41:35;41.53;;;22.73;;
3873;SDS011;1952;50.872;6.692;2023-01-29T12:44:12;34.30;;;19.73;;
3873;SDS011;1952;50.872;6.692;2023-01-29T12:46:43;34.07;;;19.67;;
3873;SDS011;1952;50.872;6.692;2023-01-29T12:49:17;37.20;;;20.90;;
3873;SDS011;1952;50.872;6.692;2023-01-29T12:51:48;29.83;;;16.37;;
3873;SDS011;1952;50.872;6.692;2023-01-29T12:54:22;32.50;;;20.80;;
3873;SDS011;1952;50.872;6.692;2023-01-29T12:56:54;31.53;;;19.60;;
3873;SDS011;1952;50.872;6.692;2023-01-29T12:59:25;26.80;;;16.50;;
3873;SDS011;1952;50.872;6.692;2023-01-29T13:01:55;35.20;;;20.33;;
3873;SDS011;1952;50.872;6.692;2023-01-29T13:04:34;31.67;;;20.20;;
3873;SDS011;1952;50.872;6.692;2023-01-29T13:07:10;28.73;;;19.60;;
3873;SDS011;1952;50.872;6.692;2023-01-29T13:09:45;30.97;;;19.90;;
3873;SDS011;1952;50.872;6.692;2023-01-29T13:12:16;28.57;;;18.40;;
3873;SDS011;1952;50.872;6.692;2023-01-29T13:14:46;27.80;;;17.20;;
3873;SDS011;1952;50.872;6.692;2023-01-29T13:17:17;24.27;;;15.83;;
3873;SDS011;1952;50.872;6.692;2023-01-29T13:19:53;27.83;;;18.33;;
3873;SDS011;1952;50.872;6.692;2023-01-29T13:22:24;32.40;;;18.37;;
3873;SDS011;1952;50.872;6.692;2023-01-29T13:24:53;26.23;;;17.27;;
3873;SDS011;1952;50.872;6.692;2023-01-29T13:27:31;26.40;;;16.37;;
3873;SDS011;1952;50.872;6.692;2023-01-29T13:30:05;25.60;;;14.57;;
3873;SDS011;1952;50.872;6.692;2023-01-29T13:32:33;18.20;;;12.73;;
3873;SDS011;1952;50.872;6.692;2023-01-29T13:35:05;17.80;;;11.43;;
3873;SDS011;1952;50.872;6.692;2023-01-29T13:37:39;11.33;;;7.20;;
3873;SDS011;1952;50.872;6.692;2023-01-29T13:40:17;10.37;;;7.20;;
3873;SDS011;1952;50.872;6.692;2023-01-29T13:42:51;8.07;;;5.73;;
3873;SDS011;1952;50.872;6.692;2023-01-29T13:45:23;6.17;;;5.50;;
3873;SDS011;1952;50.872;6.692;2023-01-29T13:48:07;5.63;;;5.13;;
3873;SDS011;1952;50.872;6.692;2023-01-29T13:50:43;5.20;;;4.70;;
3873;SDS011;1952;50.872;6.692;2023-01-29T13:53:18;5.70;;;3.40;;
3873;SDS011;1952;50.872;6.692;2023-01-29T13:55:47;5.47;;;4.03;;
3873;SDS011;1952;50.872;6.692;2023-01-29T14:04:20;6.40;;;4.77;;
3873;SDS011;1952;50.872;6.692;2023-01-29T14:06:53;4.40;;;4.00;;
3873;SDS011;1952;50.872;6.692;2023-01-29T14:12:29;7.03;;;4.70;;
3873;SDS011;1952;50.872;6.692;2023-01-29T14:20:49;7.30;;;6.10;;
3873;SDS011;1952;50.872;6.692;2023-01-29T14:23:28;6.30;;;5.40;;
3873;SDS011;1952;50.872;6.692;2023-01-29T14:26:03;9.33;;;5.17;;
3873;SDS011;1952;50.872;6.692;2023-01-29T14:28:32;6.40;;;5.30;;
3873;SDS011;1952;50.872;6.692;2023-01-29T14:31:01;6.47;;;5.27;;
3873;SDS011;1952;50.872;6.692;2023-01-29T14:33:32;6.10;;;5.50;;
3873;SDS011;1952;50.872;6.692;2023-01-29T14:36:04;7.63;;;5.53;;
3873;SDS011;1952;50.872;6.692;2023-01-29T14:38:39;7.73;;;5.87;;
3873;SDS011;1952;50.872;6.692;2023-01-29T14:41:15;5.70;;;4.60;;
3873;SDS011;1952;50.872;6.692;2023-01-29T14:43:46;5.60;;;5.10;;
3873;SDS011;1952;50.872;6.692;2023-01-29T14:46:40;6.80;;;4.87;;
3873;SDS011;1952;50.872;6.692;2023-01-29T14:49:10;5.43;;;4.63;;
3873;SDS011;1952;50.872;6.692;2023-01-29T14:51:43;6.43;;;4.93;;
3873;SDS011;1952;50.872;6.692;2023-01-29T14:54:17;7.97;;;6.17;;
3873;SDS011;1952;50.872;6.692;2023-01-29T14:56:53;5.17;;;4.67;;
3873;SDS011;1952;50.872;6.692;2023-01-29T14:59:25;5.63;;;4.97;;
3873;SDS011;1952;50.872;6.692;2023-01-29T15:01:55;7.60;;;5.47;;
3873;SDS011;1952;50.872;6.692;2023-01-29T15:04:32;8.40;;;5.90;;
3873;SDS011;1952;50.872;6.692;2023-01-29T15:07:12;6.17;;;5.13;;
3873;SDS011;1952;50.872;6.692;2023-01-29T15:09:45;5.23;;;4.80;;
3873;SDS011;1952;50.872;6.692;2023-01-29T15:12:20;9.23;;;7.33;;
3873;SDS011;1952;50.872;6.692;2023-01-29T15:14:51;7.00;;;6.00;;
3873;SDS011;1952;50.872;6.692;2023-01-29T15:17:25;7.60;;;5.90;;
3873;SDS011;1952;50.872;6.692;2023-01-29T15:19:59;9.90;;;5.90;;
3873;SDS011;1952;50.872;6.692;2023-01-29T15:22:39;8.23;;;5.10;;
3873;SDS011;1952;50.872;6.692;2023-01-29T15:25:12;8.10;;;5.87;;
3873;SDS011;1952;50.872;6.692;2023-01-29T15:27:44;7.10;;;6.40;;
3873;SDS011;1952;50.872;6.692;2023-01-29T15:30:13;6.83;;;6.13;;
3873;SDS011;1952;50.872;6.692;2023-01-29T15:35:29;8.30;;;6.20;;
3873;SDS011;1952;50.872;6.692;2023-01-29T15:38:25;8.93;;;7.20;;
3873;SDS011;1952;50.872;6.692;2023-01-29T15:50:35;10.87;;;7.60;;
3873;SDS011;1952;50.872;6.692;2023-01-29T15:53:08;10.50;;;7.53;;
3873;SDS011;1952;50.872;6.692;2023-01-29T15:56:13;9.87;;;6.93;;
3873;SDS011;1952;50.872;6.692;2023-01-29T15:58:48;10.40;;;7.90;;
3873;SDS011;1952;50.872;6.692;2023-01-29T16:01:24;9.40;;;7.07;;
3873;SDS011;1952;50.872;6.692;2023-01-29T16:04:04;9.40;;;7.23;;
3873;SDS011;1952;50.872;6.692;2023-01-29T16:06:47;8.40;;;7.00;;
3873;SDS011;1952;50.872;6.692;2023-01-29T16:09:44;9.87;;;6.47;;
3873;SDS011;1952;50.872;6.692;2023-01-29T16:12:18;10.70;;;8.40;;
3873;SDS011;1952;50.872;6.692;2023-01-29T16:14:50;11.27;;;7.40;;
3873;SDS011;1952;50.872;6.692;2023-01-29T16:17:24;14.90;;;8.70;;
3873;SDS011;1952;50.872;6.692;2023-01-29T16:23:30;11.83;;;8.60;;
3873;SDS011;1952;50.872;6.692;2023-01-29T16:26:28;9.70;;;8.10;;
3873;SDS011;1952;50.872;6.692;2023-01-29T16:29:28;11.80;;;8.97;;
3873;SDS011;1952;50.872;6.692;2023-01-29T16:32:24;10.03;;;8.20;;
3873;SDS011;1952;50.872;6.692;2023-01-29T16:34:58;11.30;;;8.83;;
3873;SDS011;1952;50.872;6.692;2023-01-29T16:37:55;10.20;;;7.10;;
3873;SDS011;1952;50.872;6.692;2023-01-29T16:49:45;12.80;;;8.83;;
3873;SDS011;1952;50.872;6.692;2023-01-29T16:52:24;17.40;;;11.40;;
3873;SDS011;1952;50.872;6.692;2023-01-29T16:55:21;11.93;;;9.73;;
3873;SDS011;1952;50.872;6.692;2023-01-29T16:58:18;14.97;;;10.07;;
3873;SDS011;1952;50.872;6.692;2023-01-29T17:00:49;18.70;;;11.47;;
3873;SDS011;1952;50.872;6.692;2023-01-29T17:03:48;16.80;;;11.13;;
3873;SDS011;1952;50.872;6.692;2023-01-29T17:15:47;15.80;;;12.13;;
3873;SDS011;1952;50.872;6.692;2023-01-29T17:18:33;13.60;;;10.43;;
3873;SDS011;1952;50.872;6.692;2023-01-29T17:21:24;21.40;;;13.23;;
3873;SDS011;1952;50.872;6.692;2023-01-29T17:24:10;15.13;;;9.70;;
3873;SDS011;1952;50.872;6.692;2023-01-29T17:26:40;13.80;;;11.10;;
3873;SDS011;1952;50.872;6.692;2023-01-29T17:29:12;17.20;;;11.70;;
3873;SDS011;1952;50.872;6.692;2023-01-29T17:41:19;11.53;;;9.10;;
3873;SDS011;1952;50.872;6.692;2023-01-29T17:44:05;12.03;;;9.10;;
3873;SDS011;1952;50.872;6.692;2023-01-29T17:53:00;16.13;;;10.40;;
3873;SDS011;1952;50.872;6.692;2023-01-29T18:48:56;14.03;;;10.63;;
3873;SDS011;1952;50.872;6.692;2023-01-29T18:51:53;17.80;;;10.27;;
3873;SDS011;1952;50.872;6.692;2023-01-29T18:54:50;13.40;;;10.13;;
3873;SDS011;1952;50.872;6.692;2023-01-29T18:57:21;13.10;;;10.20;;
3873;SDS011;1952;50.872;6.692;2023-01-29T19:00:35;15.23;;;10.07;;
3873;SDS011;1952;50.872;6.692;2023-01-29T19:03:07;13.03;;;9.77;;
3873;SDS011;1952;50.872;6.692;2023-01-29T19:05:36;15.77;;;11.40;;
3873;SDS011;1952;50.872;6.692;2023-01-29T19:08:07;18.60;;;13.77;;
3873;SDS011;1952;50.872;6.692;2023-01-29T19:10:36;15.80;;;10.90;;
3873;SDS011;1952;50.872;6.692;2023-01-29T19:13:11;13.87;;;9.77;;
3873;SDS011;1952;50.872;6.692;2023-01-29T19:15:53;17.80;;;11.97;;
3873;SDS011;1952;50.872;6.692;2023-01-29T19:18:34;15.00;;;11.53;;
3873;SDS011;1952;50.872;6.692;2023-01-29T19:21:08;17.67;;;10.60;;
3873;SDS011;1952;50.872;6.692;2023-01-29T19:23:51;15.50;;;10.90;;
3873;SDS011;1952;50.872;6.692;2023-01-29T19:26:34;15.63;;;11.30;;
3873;SDS011;1952;50.872;6.692;2023-01-29T19:29:30;15.73;;;10.73;;